createdAt,value
2019-05-02T00:01:26.735Z,9.71
2019-05-02T00:04:00.209Z,9.72
2019-05-02T00:06:38.050Z,9.72
2019-05-02T00:09:11.153Z,9.61
2019-05-02T00:11:57.671Z,9.39
2019-05-02T00:14:20.237Z,9.22
2019-05-02T00:16:53.660Z,9.15
2019-05-02T00:19:27.122Z,9.30
2019-05-02T00:22:00.682Z,9.34
2019-05-02T00:24:39.261Z,9.37
2019-05-02T00:27:09.424Z,9.37
2019-05-02T00:29:42.829Z,9.45
2019-05-02T00:32:18.307Z,9.55
2019-05-02T00:34:51.433Z,9.55
2019-05-02T00:37:26.612Z,9.29
2019-05-02T00:39:59.977Z,9.12
2019-05-02T00:42:33.405Z,9.18
2019-05-02T00:45:07.257Z,9.18
2019-05-02T00:47:47.497Z,9.33
2019-05-02T00:50:18.101Z,9.42
2019-05-02T00:52:51.522Z,9.33
2019-05-02T00:55:28.764Z,9.40
2019-05-02T00:58:00.076Z,9.44
2019-05-02T01:00:35.127Z,9.31
2019-05-02T01:03:11.073Z,9.17
2019-05-02T01:05:43.753Z,9.04
2019-05-02T01:08:17.187Z,9.10
2019-05-02T01:10:52.199Z,9.13
2019-05-02T01:13:25.741Z,9.03
2019-05-02T01:15:59.146Z,8.98
2019-05-02T01:18:32.559Z,8.98
2019-05-02T01:21:05.969Z,8.85
2019-05-02T01:23:39.452Z,8.97
2019-05-02T01:26:12.918Z,8.86
2019-05-02T01:28:54.223Z,8.82
2019-05-02T01:31:49.882Z,8.76
2019-05-02T01:34:26.012Z,8.84
2019-05-02T01:37:07.028Z,8.82
2019-05-02T01:39:42.694Z,8.78
2019-05-02T01:42:15.629Z,8.67
2019-05-02T01:44:49.041Z,8.61
2019-05-02T01:47:22.439Z,8.52
2019-05-02T01:49:57.188Z,8.48
2019-05-02T01:52:30.998Z,8.45
2019-05-02T01:55:06.342Z,8.47
2019-05-02T01:57:40.008Z,8.43
2019-05-02T02:00:15.319Z,8.30
2019-05-02T02:02:48.712Z,8.17
2019-05-02T02:05:22.120Z,7.99
2019-05-02T02:07:57.431Z,8.06
2019-05-02T02:10:30.660Z,8.06
2019-05-02T02:13:05.289Z,8.14
2019-05-02T02:15:38.980Z,8.09
2019-05-02T02:18:13.767Z,7.93
2019-05-02T02:20:49.329Z,7.80
2019-05-02T02:23:25.241Z,7.85
2019-05-02T02:26:06.949Z,7.88
2019-05-02T02:28:38.275Z,7.76
2019-05-02T02:31:11.704Z,7.62
2019-05-02T02:33:47.926Z,7.68
2019-05-02T02:36:30.365Z,7.60
2019-05-02T02:38:55.491Z,7.49
2019-05-02T02:41:28.913Z,7.45
2019-05-02T02:44:07.634Z,7.52
2019-05-02T02:46:45.659Z,7.40
2019-05-02T02:49:21.430Z,7.37
2019-05-02T02:51:57.944Z,7.40
2019-05-02T02:54:29.316Z,7.42
2019-05-02T02:57:02.747Z,7.51
2019-05-02T02:59:36.140Z,7.55
2019-05-02T03:02:11.856Z,7.53
2019-05-02T03:04:46.426Z,7.47
2019-05-02T03:07:25.941Z,7.38
2019-05-02T03:09:59.646Z,7.38
2019-05-02T03:12:36.302Z,7.41
2019-05-02T03:15:09.144Z,7.49
2019-05-02T03:17:42.630Z,7.52
2019-05-02T03:20:16.019Z,7.50
2019-05-02T03:22:49.435Z,7.52
2019-05-02T03:25:25.014Z,7.63
2019-05-02T03:27:58.416Z,7.66
2019-05-02T03:30:37.430Z,7.78
2019-05-02T03:33:11.163Z,7.80
2019-05-02T03:35:48.395Z,7.81
2019-05-02T03:38:17.321Z,7.88
2019-05-02T03:40:50.855Z,7.91
2019-05-02T03:43:25.773Z,8.00
2019-05-02T03:45:59.508Z,8.01
2019-05-02T03:48:32.978Z,8.02
2019-05-02T03:51:19.750Z,7.97
2019-05-02T03:53:41.573Z,8.01
2019-05-02T03:56:14.977Z,8.07
2019-05-02T03:58:55.968Z,8.04
2019-05-02T04:01:23.867Z,8.03
2019-05-02T04:03:57.333Z,7.99
2019-05-02T04:06:31.598Z,7.91
2019-05-02T04:09:07.461Z,7.90
2019-05-02T04:11:41.801Z,7.87
2019-05-02T04:14:23.292Z,7.70
2019-05-02T04:16:55.315Z,7.63
2019-05-02T04:19:28.750Z,7.64
2019-05-02T04:22:08.974Z,7.75
2019-05-02T04:24:37.171Z,7.78
2019-05-02T04:27:11.812Z,7.91
2019-05-02T04:29:45.222Z,7.85
2019-05-02T04:32:18.621Z,7.79
2019-05-02T04:34:55.095Z,7.85
2019-05-02T04:37:27.162Z,8.02
2019-05-02T04:40:03.169Z,8.03
2019-05-02T04:42:35.712Z,7.93
2019-05-02T04:45:21.840Z,8.05
2019-05-02T04:47:57.499Z,8.17
2019-05-02T04:50:25.012Z,8.37
2019-05-02T04:52:54.508Z,8.34
2019-05-02T04:55:32.364Z,8.46
2019-05-02T04:58:03.059Z,8.54
2019-05-02T05:00:38.989Z,8.91
2019-05-02T05:03:15.748Z,9.12
2019-05-02T05:05:48.187Z,9.50
2019-05-02T05:08:26.634Z,9.60
2019-05-02T05:10:57.371Z,9.28
2019-05-02T05:13:30.862Z,9.05
2019-05-02T05:16:08.612Z,9.00
2019-05-02T05:18:39.451Z,9.03
2019-05-02T05:21:12.863Z,9.06
2019-05-02T05:23:51.708Z,8.94
2019-05-02T05:26:23.606Z,9.11
2019-05-02T05:28:58.393Z,9.58
2019-05-02T05:31:31.886Z,9.84
2019-05-02T05:34:05.294Z,9.90
2019-05-02T05:36:38.725Z,9.88
2019-05-02T05:39:12.122Z,10.03
2019-05-02T05:41:50.567Z,9.81
2019-05-02T05:44:23.334Z,9.74
2019-05-02T05:46:57.991Z,9.69
2019-05-02T05:49:30.976Z,9.96
2019-05-02T05:52:04.482Z,10.17
2019-05-02T05:54:41.862Z,10.08
2019-05-02T05:57:17.374Z,10.15
2019-05-02T05:59:48.563Z,10.26
2019-05-02T06:02:21.937Z,10.22
2019-05-02T06:05:01.998Z,10.63
2019-05-02T06:07:33.574Z,11.43
2019-05-02T06:10:07.994Z,11.60
2019-05-02T06:12:41.600Z,11.74
2019-05-02T06:15:15.138Z,12.43
2019-05-02T06:17:48.548Z,12.02
2019-05-02T06:20:25.767Z,12.17
2019-05-02T06:22:59.999Z,11.88
2019-05-02T06:25:36.409Z,11.62
2019-05-02T06:28:07.346Z,11.32
2019-05-02T06:30:40.764Z,10.95
2019-05-02T06:33:14.170Z,10.98
2019-05-02T06:35:47.665Z,10.81
2019-05-02T06:38:22.921Z,10.84
2019-05-02T06:40:56.586Z,11.08
2019-05-02T06:43:30.009Z,11.73
2019-05-02T06:46:15.579Z,12.24
2019-05-02T06:48:38.615Z,13.34
2019-05-02T06:51:19.638Z,13.44
2019-05-02T06:53:48.905Z,12.65
2019-05-02T06:56:22.452Z,12.92
2019-05-02T06:58:55.889Z,13.28
2019-05-02T07:01:29.319Z,13.27
2019-05-02T07:04:04.383Z,13.08
2019-05-02T07:06:56.028Z,12.67
2019-05-02T07:09:13.519Z,13.19
2019-05-02T07:11:57.048Z,13.36
2019-05-02T07:14:23.637Z,12.85
2019-05-02T07:16:59.019Z,12.32
2019-05-02T07:19:49.342Z,13.40
2019-05-02T07:22:23.183Z,13.67
2019-05-02T07:24:56.594Z,14.68
2019-05-02T07:27:33.739Z,14.26
2019-05-02T07:30:08.593Z,14.27
2019-05-02T07:32:43.376Z,14.39
2019-05-02T07:35:19.248Z,13.86
2019-05-02T07:37:52.144Z,14.28
2019-05-02T07:40:25.620Z,13.92
2019-05-02T07:42:59.032Z,14.61
2019-05-02T07:45:32.535Z,16.12
2019-05-02T07:48:05.961Z,16.09
2019-05-02T07:50:41.277Z,16.76
2019-05-02T07:53:14.520Z,15.83
2019-05-02T07:55:49.224Z,15.60
2019-05-02T07:58:22.738Z,14.43
2019-05-02T08:00:56.173Z,15.08
2019-05-02T08:03:33.582Z,15.33
2019-05-02T08:06:04.923Z,14.70
2019-05-02T08:08:38.336Z,14.23
2019-05-02T08:11:11.870Z,14.03
2019-05-02T08:13:49.618Z,14.19
2019-05-02T08:16:22.380Z,14.62
2019-05-02T08:18:55.659Z,15.07
2019-05-02T08:21:32.465Z,14.58
2019-05-02T08:24:04.521Z,15.03
2019-05-02T08:26:58.277Z,15.03
2019-05-02T08:29:31.018Z,15.50
2019-05-02T08:32:04.602Z,15.29
2019-05-02T08:34:38.010Z,15.09
2019-05-02T08:37:11.440Z,15.29
2019-05-02T08:39:44.841Z,15.37
2019-05-02T08:42:18.280Z,15.45
2019-05-02T08:44:56.242Z,15.33
2019-05-02T08:47:28.457Z,15.89
2019-05-02T08:50:02.090Z,15.34
2019-05-02T08:52:36.747Z,15.47
2019-05-02T08:55:11.174Z,16.14
2019-05-02T08:57:44.588Z,16.05
2019-05-02T09:00:18.255Z,15.62
2019-05-02T09:02:51.770Z,15.80
2019-05-02T09:05:25.164Z,16.55
2019-05-02T09:07:58.606Z,16.28
2019-05-02T09:10:32.085Z,16.64
2019-05-02T09:13:05.672Z,16.22
2019-05-02T09:15:40.345Z,16.25
2019-05-02T09:18:14.242Z,15.54
2019-05-02T09:20:52.599Z,15.83
2019-05-02T09:23:23.032Z,16.66
2019-05-02T09:25:58.056Z,16.03
2019-05-02T09:28:32.113Z,16.62
2019-05-02T09:31:06.762Z,16.44
2019-05-02T09:33:42.477Z,15.45
2019-05-02T09:36:15.742Z,16.22
2019-05-02T09:38:55.968Z,16.20
2019-05-02T09:41:31.773Z,16.59
2019-05-02T09:44:02.893Z,17.07
2019-05-02T09:46:36.412Z,16.26
2019-05-02T09:49:14.392Z,16.89
2019-05-02T09:51:45.651Z,16.82
2019-05-02T09:54:22.837Z,17.00
2019-05-02T09:56:55.631Z,16.89
2019-05-02T09:59:33.073Z,16.96
2019-05-02T10:02:06.759Z,16.30
2019-05-02T10:04:43.819Z,16.52
2019-05-02T10:07:15.635Z,16.35
2019-05-02T10:09:49.236Z,16.51
2019-05-02T10:12:22.973Z,16.40
2019-05-02T10:14:56.549Z,17.06
2019-05-02T10:17:32.065Z,17.04
2019-05-02T10:20:07.608Z,16.53
2019-05-02T10:22:41.855Z,17.48
2019-05-02T10:25:16.317Z,17.30
2019-05-02T10:27:49.805Z,17.39
2019-05-02T10:30:25.007Z,17.96
2019-05-02T10:32:58.526Z,17.04
2019-05-02T10:35:45.667Z,16.35
2019-05-02T10:38:19.527Z,17.12
2019-05-02T10:40:59.319Z,16.97
2019-05-02T10:43:28.478Z,16.95
2019-05-02T10:46:06.272Z,16.95
2019-05-02T10:48:42.133Z,17.17
2019-05-02T10:51:26.461Z,17.38
2019-05-02T10:53:59.877Z,17.12
2019-05-02T10:56:33.304Z,17.23
2019-05-02T10:59:06.743Z,17.74
2019-05-02T11:01:41.903Z,17.54
2019-05-02T11:04:16.293Z,16.34
2019-05-02T11:06:51.697Z,17.16
2019-05-02T11:09:26.370Z,17.76
2019-05-02T11:12:02.670Z,17.72
2019-05-02T11:14:37.784Z,16.82
2019-05-02T11:17:17.282Z,17.31
2019-05-02T11:19:49.617Z,17.84
2019-05-02T11:22:23.039Z,17.52
2019-05-02T11:24:56.443Z,17.47
2019-05-02T11:27:29.868Z,17.62
2019-05-02T11:30:05.091Z,17.62
2019-05-02T11:32:38.612Z,18.05
2019-05-02T11:35:12.315Z,17.23
2019-05-02T11:37:45.764Z,17.67
2019-05-02T11:40:19.241Z,17.69
2019-05-02T11:42:52.680Z,18.26
2019-05-02T11:45:26.081Z,17.40
2019-05-02T11:48:01.672Z,17.62
2019-05-02T11:50:35.551Z,18.05
2019-05-02T11:53:22.313Z,18.49
2019-05-02T11:55:44.107Z,18.63
2019-05-02T11:58:17.525Z,18.68
2019-05-02T12:00:52.333Z,19.23
2019-05-02T12:03:28.255Z,19.06
2019-05-02T12:06:06.695Z,18.79
2019-05-02T12:08:39.333Z,18.64
2019-05-02T12:11:17.428Z,18.90
2019-05-02T12:13:52.824Z,19.06
2019-05-02T12:16:24.161Z,19.02
2019-05-02T12:19:08.462Z,18.89
2019-05-02T12:21:32.892Z,18.48
2019-05-02T12:24:06.355Z,18.48
2019-05-02T12:26:41.793Z,18.31
2019-05-02T12:29:14.952Z,18.66
2019-05-02T12:31:52.674Z,18.85
2019-05-02T12:34:23.679Z,19.11
2019-05-02T12:36:57.192Z,18.15
2019-05-02T12:39:31.693Z,19.06
2019-05-02T12:42:05.798Z,18.48
2019-05-02T12:44:39.499Z,19.26
2019-05-02T12:47:12.969Z,18.91
2019-05-02T12:49:46.410Z,19.28
2019-05-02T12:52:19.832Z,19.14
2019-05-02T12:54:53.334Z,19.77
2019-05-02T12:57:26.755Z,19.43
2019-05-02T13:00:02.035Z,19.37
2019-05-02T13:02:36.970Z,19.70
2019-05-02T13:05:10.679Z,19.70
2019-05-02T13:07:50.364Z,19.42
2019-05-02T13:10:21.959Z,19.89
2019-05-02T13:12:55.420Z,19.67
2019-05-02T13:15:29.113Z,19.62
2019-05-02T13:18:03.083Z,19.58
2019-05-02T13:20:38.428Z,19.72
2019-05-02T13:23:15.377Z,19.86
2019-05-02T13:25:48.940Z,19.79
2019-05-02T13:28:25.664Z,19.92
2019-05-02T13:30:59.280Z,20.09
2019-05-02T13:33:49.129Z,20.39
2019-05-02T13:36:44.327Z,20.27
2019-05-02T13:39:39.454Z,18.99
2019-05-02T13:42:13.075Z,19.02
2019-05-02T13:45:03.475Z,19.44
2019-05-02T13:47:36.906Z,19.22
2019-05-02T13:50:12.780Z,19.43
2019-05-02T13:52:55.037Z,18.98
2019-05-02T13:55:25.480Z,19.38
2019-05-02T13:57:58.875Z,19.29
2019-05-02T14:00:34.107Z,19.57
2019-05-02T14:03:07.780Z,19.82
2019-05-02T14:05:49.160Z,19.73
2019-05-02T14:08:19.739Z,20.17
2019-05-02T14:11:01.902Z,19.25
2019-05-02T14:13:35.638Z,19.74
2019-05-02T14:16:09.221Z,19.49
2019-05-02T14:18:42.623Z,19.33
2019-05-02T14:21:16.124Z,19.27
2019-05-02T14:23:51.678Z,19.41
2019-05-02T14:26:30.193Z,19.41
2019-05-02T14:28:59.833Z,19.72
2019-05-02T14:31:33.272Z,19.93
2019-05-02T14:34:14.023Z,19.95
2019-05-02T14:36:47.445Z,20.40
2019-05-02T14:39:22.656Z,20.16
2019-05-02T14:41:56.114Z,20.10
2019-05-02T14:44:59.805Z,20.09
2019-05-02T14:47:04.912Z,19.74
2019-05-02T14:49:38.381Z,20.07
2019-05-02T14:52:12.643Z,19.89
2019-05-02T14:54:48.074Z,20.58
2019-05-02T14:57:22.940Z,20.27
2019-05-02T14:59:59.549Z,19.76
2019-05-02T15:02:39.360Z,19.70
2019-05-02T15:05:12.752Z,20.00
2019-05-02T15:07:46.374Z,19.96
2019-05-02T15:10:19.930Z,19.82
2019-05-02T15:12:59.772Z,19.79
2019-05-02T15:15:33.607Z,19.97
2019-05-02T15:18:07.900Z,20.32
2019-05-02T15:20:39.508Z,19.59
2019-05-02T15:23:19.346Z,19.39
2019-05-02T15:25:52.511Z,19.89
2019-05-02T15:28:24.402Z,19.79
2019-05-02T15:31:05.186Z,19.80
2019-05-02T15:33:42.058Z,19.38
2019-05-02T15:36:15.542Z,19.50
2019-05-02T15:38:48.986Z,19.43
2019-05-02T15:41:23.148Z,19.12
2019-05-02T15:43:56.593Z,19.02
2019-05-02T15:46:31.765Z,19.24
2019-05-02T15:49:05.893Z,19.23
2019-05-02T15:51:45.039Z,18.95
2019-05-02T15:54:18.837Z,18.75
2019-05-02T15:57:00.410Z,18.94
2019-05-02T15:59:37.646Z,18.65
2019-05-02T16:02:13.006Z,18.48
2019-05-02T16:04:46.539Z,18.69
2019-05-02T16:07:19.960Z,18.69
2019-05-02T16:09:57.274Z,18.72
2019-05-02T16:12:31.941Z,18.69
2019-05-02T16:15:13.089Z,18.53
2019-05-02T16:17:42.208Z,18.57
2019-05-02T16:20:18.402Z,18.71
2019-05-02T16:22:52.409Z,18.73
2019-05-02T16:25:26.057Z,18.66
2019-05-02T16:28:02.672Z,18.72
2019-05-02T16:30:37.005Z,18.89
2019-05-02T16:33:17.411Z,18.98
2019-05-02T16:35:46.252Z,18.80
2019-05-02T16:38:22.124Z,18.57
2019-05-02T16:40:55.609Z,18.79
2019-05-02T16:43:32.334Z,18.74
2019-05-02T16:46:06.563Z,18.78
2019-05-02T16:48:42.596Z,18.80
2019-05-02T16:51:30.265Z,18.59
2019-05-02T16:53:51.353Z,18.41
2019-05-02T16:56:24.792Z,18.44
2019-05-02T16:58:58.191Z,18.43
2019-05-02T17:01:38.453Z,18.27
2019-05-02T17:04:12.921Z,18.24
2019-05-02T17:06:46.625Z,18.08
2019-05-02T17:09:22.353Z,18.10
2019-05-02T17:11:56.826Z,18.02
2019-05-02T17:14:31.742Z,17.94
2019-05-02T17:17:05.407Z,17.86
2019-05-02T17:19:40.354Z,17.67
2019-05-02T17:22:16.759Z,17.57
2019-05-02T17:24:48.918Z,17.56
2019-05-02T17:27:24.591Z,17.45
2019-05-02T17:29:59.217Z,17.38
2019-05-02T17:32:34.155Z,17.38
2019-05-02T17:35:09.877Z,17.28
2019-05-02T17:37:48.779Z,17.28
2019-05-02T17:40:24.433Z,17.28
2019-05-02T17:42:57.130Z,17.21
2019-05-02T17:45:33.513Z,17.22
2019-05-02T17:48:10.416Z,17.17
2019-05-02T17:50:49.346Z,17.15
2019-05-02T17:53:23.882Z,17.10
2019-05-02T17:55:57.356Z,16.96
2019-05-02T17:58:31.780Z,16.76
2019-05-02T18:01:07.431Z,16.38
2019-05-02T18:03:42.560Z,15.96
2019-05-02T18:06:17.350Z,15.54
2019-05-02T18:08:55.169Z,15.28
2019-05-02T18:11:29.600Z,15.01
2019-05-02T18:14:03.315Z,14.88
2019-05-02T18:16:39.291Z,14.70
2019-05-02T18:19:16.065Z,14.59
2019-05-02T18:21:47.525Z,14.58
2019-05-02T18:24:22.298Z,14.60
2019-05-02T18:26:55.886Z,14.57
2019-05-02T18:29:29.380Z,14.55
2019-05-02T18:32:05.076Z,14.30
2019-05-02T18:34:38.560Z,14.04
2019-05-02T18:37:11.962Z,13.80
2019-05-02T18:39:50.855Z,13.72
2019-05-02T18:42:21.940Z,13.72
2019-05-02T18:44:55.917Z,13.71
2019-05-02T18:47:29.368Z,13.67
2019-05-02T18:50:06.093Z,13.75
2019-05-02T18:52:43.094Z,13.72
2019-05-02T18:55:17.211Z,13.81
2019-05-02T18:57:48.625Z,13.83
2019-05-02T19:00:22.912Z,13.78
2019-05-02T19:02:56.676Z,13.69
2019-05-02T19:05:30.232Z,13.60
2019-05-02T19:08:03.691Z,13.64
2019-05-02T19:10:41.671Z,13.61
2019-05-02T19:13:12.838Z,13.55
2019-05-02T19:15:48.916Z,13.57
2019-05-02T19:18:21.562Z,13.49
2019-05-02T19:21:02.528Z,13.47
2019-05-02T19:23:36.544Z,13.41
2019-05-02T19:26:13.106Z,13.06
2019-05-02T19:28:52.158Z,12.86
2019-05-02T19:31:26.740Z,12.82
2019-05-02T19:34:02.290Z,12.74
2019-05-02T19:36:35.386Z,12.70
2019-05-02T19:39:09.950Z,12.71
2019-05-02T19:41:45.394Z,12.72
2019-05-02T19:44:21.538Z,12.63
2019-05-02T19:46:53.891Z,12.55
2019-05-02T19:49:27.299Z,12.41
2019-05-02T19:52:02.296Z,12.34
2019-05-02T19:54:39.229Z,12.27
2019-05-02T19:57:11.876Z,12.24
2019-05-02T19:59:45.445Z,12.14
2019-05-02T20:02:19.128Z,12.06
2019-05-02T20:04:52.531Z,12.00
2019-05-02T20:07:25.959Z,11.90
2019-05-02T20:09:59.455Z,11.79
2019-05-02T20:12:32.895Z,11.72
2019-05-02T20:15:09.339Z,11.58
2019-05-02T20:17:42.778Z,11.51
2019-05-02T20:20:40.671Z,11.51
2019-05-02T20:23:18.385Z,11.48
2019-05-02T20:25:52.234Z,11.42
2019-05-02T20:28:25.875Z,11.42
2019-05-02T20:30:59.357Z,11.41
2019-05-02T20:33:32.891Z,11.46
2019-05-02T20:36:06.355Z,11.42
2019-05-02T20:38:41.626Z,11.49
2019-05-02T20:41:15.026Z,11.48
2019-05-02T20:43:48.460Z,11.52
2019-05-02T20:46:22.041Z,11.55
2019-05-02T20:48:55.531Z,11.54
2019-05-02T20:51:29.094Z,11.54
2019-05-02T20:54:02.545Z,11.45
2019-05-02T20:56:36.031Z,11.49
2019-05-02T20:59:09.452Z,11.46
2019-05-02T21:01:43.107Z,11.51
2019-05-02T21:04:16.767Z,11.52
2019-05-02T21:06:54.546Z,11.44
2019-05-02T21:09:38.681Z,11.46
2019-05-02T21:12:12.702Z,11.37
2019-05-02T21:14:46.306Z,11.39
2019-05-02T21:17:19.716Z,11.47
2019-05-02T21:19:53.159Z,11.42
2019-05-02T21:22:29.181Z,11.52
2019-05-02T21:25:02.629Z,11.61
2019-05-02T21:27:36.094Z,11.50
2019-05-02T21:30:13.251Z,11.51
2019-05-02T21:32:46.671Z,11.54
2019-05-02T21:35:20.105Z,11.60
2019-05-02T21:37:53.498Z,11.56
2019-05-02T21:40:27.112Z,11.71
2019-05-02T21:43:02.370Z,11.71
2019-05-02T21:45:35.674Z,11.66
2019-05-02T21:48:09.066Z,11.68
2019-05-02T21:50:53.303Z,11.63
2019-05-02T21:53:33.872Z,11.61
2019-05-02T21:56:25.370Z,11.65
2019-05-02T21:59:09.063Z,11.64
2019-05-02T22:01:53.535Z,11.66
2019-05-02T22:04:26.964Z,11.61
2019-05-02T22:07:00.388Z,11.53
2019-05-02T22:09:33.815Z,11.50
2019-05-02T22:12:07.382Z,11.51
2019-05-02T22:14:42.161Z,11.70
2019-05-02T22:17:17.119Z,11.71
2019-05-02T22:19:52.418Z,11.69
2019-05-02T22:22:25.940Z,11.70
2019-05-02T22:24:59.356Z,11.65
2019-05-02T22:27:32.761Z,11.58
2019-05-02T22:30:07.639Z,11.53
2019-05-02T22:32:42.717Z,11.43
2019-05-02T22:35:16.281Z,11.44
2019-05-02T22:37:51.354Z,11.40
2019-05-02T22:40:24.751Z,11.27
2019-05-02T22:42:58.204Z,11.33
2019-05-02T22:45:32.228Z,11.22
2019-05-02T22:48:05.929Z,11.18
2019-05-02T22:50:39.325Z,11.18
2019-05-02T22:53:14.005Z,11.16
2019-05-02T22:55:47.538Z,11.08
2019-05-02T22:58:22.222Z,11.06
2019-05-02T23:00:55.713Z,11.07
2019-05-02T23:03:29.234Z,11.00
2019-05-02T23:06:02.722Z,10.91
2019-05-02T23:08:36.169Z,10.89
2019-05-02T23:11:09.669Z,10.90
2019-05-02T23:13:43.153Z,10.87
2019-05-02T23:16:16.632Z,10.86
2019-05-02T23:18:51.944Z,10.85
2019-05-02T23:21:25.271Z,10.83
2019-05-02T23:24:01.654Z,10.80
2019-05-02T23:26:42.841Z,10.80
2019-05-02T23:29:17.873Z,10.74
2019-05-02T23:31:51.823Z,10.73
2019-05-02T23:34:25.281Z,10.68
2019-05-02T23:36:58.709Z,10.72
2019-05-02T23:39:32.351Z,10.67
2019-05-02T23:42:05.841Z,10.55
2019-05-02T23:44:39.281Z,10.54
2019-05-02T23:47:12.716Z,10.55
2019-05-02T23:49:46.146Z,10.62
2019-05-02T23:52:19.574Z,10.69
2019-05-02T23:54:52.992Z,10.75
2019-05-02T23:57:26.405Z,10.70
2019-05-02T23:59:59.851Z,10.71
